No particular awareness of the weather is required.    There are no Weather-warnings


Meteo18 Weather Cam more information Meteo18 Weather Cam


Thunder radar more information blitzortung!


Rain radar more information rain snow radar


Visit our other weather sites:

Template documentation
and downloads

And another site



Weather Underground History page Text

Daily Summary for March 6, 2017 Units:  Both    English   Metric
« Previous Day
Next Day »
Daily Weekly Monthly Yearly Custom
  High: Low: Average:
Temperature: 48.9 °F /  9.4 °C 39.7 °F /  4.3 °C 43.7 °F /  6.5 °C
Dew Point: 45.9 °F /  7.7 °C 36.9 °F /  2.7 °C 40.6 °F /  4.8 °C
Humidity: 97 % 77 % 89 %
Wind Speed: 32 mph /  51.5 km/h - 8.6 mph /  13.9 km/h
Wind Gust: 38 mph /  61.1 km/h - -
Wind:- - WSW
Pressure: 30 in /  1016.8 hPa 29.5 in /  997.9 hPa -
Precipitation: 0.51 in /  13.0 mm    
Historical Graphs
 
 
Tabular Data for March 6, 2017
Time Temperature Dew Point Pressure Wind Wind Speed Wind Gust Humidity Rainfall Rate (Hourly)
00:02 45.3 °F /  7.4 °C 41 °F /  5.0 °C 29.8 in /  1010.4 hPa WSW 9 mph /  14.5 km/h 17 mph /  27.4 km/h 85 % 0 in /  0.0 mm
00:07 45.3 °F /  7.4 °C 41 °F /  5.0 °C 29.8 in /  1010.4 hPa WSW 7 mph /  11.3 km/h 17 mph /  27.4 km/h 85 % 0 in /  0.0 mm
00:12 45.3 °F /  7.4 °C 41 °F /  5.0 °C 29.8 in /  1010.7 hPa WSW 6 mph /  9.7 km/h 17 mph /  27.4 km/h 85 % 0 in /  0.0 mm
00:17 45.3 °F /  7.4 °C 41.4 °F /  5.2 °C 29.8 in /  1010.7 hPa West 13 mph /  20.9 km/h 18 mph /  29.0 km/h 86 % 0 in /  0.0 mm
00:22 45.3 °F /  7.4 °C 41.4 °F /  5.2 °C 29.8 in /  1010.4 hPa West 7 mph /  11.3 km/h 19 mph /  30.6 km/h 86 % 0 in /  0.0 mm
00:32 45.3 °F /  7.4 °C 41.4 °F /  5.2 °C 29.8 in /  1010.7 hPa WSW 11 mph /  17.7 km/h 17 mph /  27.4 km/h 86 % 0 in /  0.0 mm
00:37 45.3 °F /  7.4 °C 41.4 °F /  5.2 °C 29.8 in /  1010.7 hPa West 9 mph /  14.5 km/h 17 mph /  27.4 km/h 86 % 0 in /  0.0 mm
00:47 45.3 °F /  7.4 °C 41.7 °F /  5.4 °C 29.8 in /  1010.7 hPa SW 12 mph /  19.3 km/h 14 mph /  22.5 km/h 87 % 0 in /  0.0 mm
00:57 45.5 °F /  7.5 °C 41.9 °F /  5.5 °C 29.8 in /  1010.7 hPa SW 9 mph /  14.5 km/h 20 mph /  32.2 km/h 87 % 0 in /  0.0 mm
01:02 45.7 °F /  7.6 °C 42.1 °F /  5.6 °C 29.8 in /  1010.4 hPa WSW 8 mph /  12.9 km/h 20 mph /  32.2 km/h 87 % 0 in /  0.0 mm
01:07 45.7 °F /  7.6 °C 42.1 °F /  5.6 °C 29.8 in /  1010.4 hPa West 8 mph /  12.9 km/h 15 mph /  24.1 km/h 87 % 0 in /  0.0 mm
01:12 45.7 °F /  7.6 °C 42.1 °F /  5.6 °C 29.8 in /  1010.7 hPa WSW 8 mph /  12.9 km/h 16 mph /  25.7 km/h 87 % 0 in /  0.0 mm
01:17 45.7 °F /  7.6 °C 42.3 °F /  5.7 °C 29.8 in /  1010.7 hPa West 5 mph /  8.0 km/h 16 mph /  25.7 km/h 88 % 0 in /  0.0 mm
01:22 45.7 °F /  7.6 °C 42.1 °F /  5.6 °C 29.8 in /  1010.7 hPa WSW 6 mph /  9.7 km/h 13 mph /  20.9 km/h 87 % 0 in /  0.0 mm
01:27 45.9 °F /  7.7 °C 42.3 °F /  5.7 °C 29.8 in /  1010.7 hPa WSW 5 mph /  8.0 km/h 15 mph /  24.1 km/h 87 % 0 in /  0.0 mm
01:32 45.7 °F /  7.6 °C 42.1 °F /  5.6 °C 29.8 in /  1010.7 hPa West 8 mph /  12.9 km/h 15 mph /  24.1 km/h 87 % 0 in /  0.0 mm
01:37 45.9 °F /  7.7 °C 42.3 °F /  5.7 °C 29.8 in /  1010.7 hPa SW 7 mph /  11.3 km/h 16 mph /  25.7 km/h 87 % 0 in /  0.0 mm
01:42 45.9 °F /  7.7 °C 42.3 °F /  5.7 °C 29.8 in /  1010.7 hPa SW 7 mph /  11.3 km/h 16 mph /  25.7 km/h 87 % 0 in /  0.0 mm
01:47 45.9 °F /  7.7 °C 42.3 °F /  5.7 °C 29.8 in /  1010.7 hPa WSW 10 mph /  16.1 km/h 16 mph /  25.7 km/h 87 % 0 in /  0.0 mm
01:52 45.9 °F /  7.7 °C 42.3 °F /  5.7 °C 29.8 in /  1010.7 hPa SW 6 mph /  9.7 km/h 16 mph /  25.7 km/h 87 % 0 in /  0.0 mm
01:57 45.9 °F /  7.7 °C 42.3 °F /  5.7 °C 29.8 in /  1010.7 hPa West 11 mph /  17.7 km/h 16 mph /  25.7 km/h 87 % 0 in /  0.0 mm
02:02 46 °F /  7.8 °C 42.1 °F /  5.6 °C 29.8 in /  1010.7 hPa WSW 6 mph /  9.7 km/h 16 mph /  25.7 km/h 86 % 0 in /  0.0 mm
02:12 46.2 °F /  7.9 °C 41.9 °F /  5.5 °C 29.8 in /  1010.7 hPa WSW 9 mph /  14.5 km/h 18 mph /  29.0 km/h 85 % 0 in /  0.0 mm
02:17 46 °F /  7.8 °C 42.1 °F /  5.6 °C 29.8 in /  1010.7 hPa WSW 6 mph /  9.7 km/h 18 mph /  29.0 km/h 86 % 0 in /  0.0 mm
02:22 46 °F /  7.8 °C 42.1 °F /  5.6 °C 29.8 in /  1010.7 hPa SW 8 mph /  12.9 km/h 18 mph /  29.0 km/h 86 % 0 in /  0.0 mm
02:27 46 °F /  7.8 °C 42.1 °F /  5.6 °C 29.8 in /  1010.7 hPa WSW 7 mph /  11.3 km/h 13 mph /  20.9 km/h 86 % 0 in /  0.0 mm
02:32 45.9 °F /  7.7 °C 41.9 °F /  5.5 °C 29.8 in /  1010.4 hPa WSW 3 mph /  4.8 km/h 13 mph /  20.9 km/h 86 % 0 in /  0.0 mm
02:37 45.9 °F /  7.7 °C 42.3 °F /  5.7 °C 29.8 in /  1010.4 hPa West 5 mph /  8.0 km/h 13 mph /  20.9 km/h 87 % 0 in /  0.0 mm
02:42 45.9 °F /  7.7 °C 42.3 °F /  5.7 °C 29.8 in /  1010.4 hPa SW 5 mph /  8.0 km/h 11 mph /  17.7 km/h 87 % 0 in /  0.0 mm
02:52 45.9 °F /  7.7 °C 42.3 °F /  5.7 °C 29.8 in /  1010.4 hPa WSW 2 mph /  3.2 km/h 11 mph /  17.7 km/h 87 % 0 in /  0.0 mm
02:57 45.7 °F /  7.6 °C 42.1 °F /  5.6 °C 29.8 in /  1010.4 hPa SW 5 mph /  8.0 km/h 10 mph /  16.1 km/h 87 % 0 in /  0.0 mm
03:02 45.7 °F /  7.6 °C 42.3 °F /  5.7 °C 29.8 in /  1010.0 hPa SW 5 mph /  8.0 km/h 9 mph /  14.5 km/h 88 % 0 in /  0.0 mm
03:07 45.5 °F /  7.5 °C 42.1 °F /  5.6 °C 29.8 in /  1010.0 hPa South 4 mph /  6.4 km/h 9 mph /  14.5 km/h 88 % 0 in /  0.0 mm
03:12 45.3 °F /  7.4 °C 41.9 °F /  5.5 °C 29.8 in /  1010.0 hPa WSW 3 mph /  4.8 km/h 8 mph /  12.9 km/h 88 % 0 in /  0.0 mm
03:17 45.3 °F /  7.4 °C 42.3 °F /  5.7 °C 29.8 in /  1010.0 hPa WSW 4 mph /  6.4 km/h 10 mph /  16.1 km/h 89 % 0 in /  0.0 mm
03:22 45.3 °F /  7.4 °C 42.3 °F /  5.7 °C 29.8 in /  1009.7 hPa WSW 5 mph /  8.0 km/h 10 mph /  16.1 km/h 89 % 0 in /  0.0 mm
03:27 45.3 °F /  7.4 °C 41.9 °F /  5.5 °C 29.8 in /  1009.7 hPa SW 4 mph /  6.4 km/h 10 mph /  16.1 km/h 88 % 0 in /  0.0 mm
03:32 45.3 °F /  7.4 °C 42.3 °F /  5.7 °C 29.8 in /  1009.7 hPa SW 4 mph /  6.4 km/h 10 mph /  16.1 km/h 89 % 0 in /  0.0 mm
03:37 45.1 °F /  7.3 °C 42.1 °F /  5.6 °C 29.8 in /  1009.7 hPa SW 7 mph /  11.3 km/h 8 mph /  12.9 km/h 89 % 0 in /  0.0 mm
03:42 45.3 °F /  7.4 °C 42.3 °F /  5.7 °C 29.8 in /  1009.7 hPa SW 6 mph /  9.7 km/h 10 mph /  16.1 km/h 89 % 0 in /  0.0 mm
03:47 45.3 °F /  7.4 °C 42.3 °F /  5.7 °C 29.8 in /  1009.7 hPa SSW 3 mph /  4.8 km/h 10 mph /  16.1 km/h 89 % 0 in /  0.0 mm
03:52 45.3 °F /  7.4 °C 42.3 °F /  5.7 °C 29.8 in /  1009.4 hPa WSW 6 mph /  9.7 km/h 10 mph /  16.1 km/h 89 % 0 in /  0.0 mm
03:57 45.3 °F /  7.4 °C 42.3 °F /  5.7 °C 29.8 in /  1009.4 hPa SW 9 mph /  14.5 km/h 10 mph /  16.1 km/h 89 % 0 in /  0.0 mm
04:02 45.3 °F /  7.4 °C 42.3 °F /  5.7 °C 29.8 in /  1009.4 hPa WSW 5 mph /  8.0 km/h 11 mph /  17.7 km/h 89 % 0 in /  0.0 mm
04:07 45.3 °F /  7.4 °C 42.6 °F /  5.9 °C 29.8 in /  1009.4 hPa WSW 5 mph /  8.0 km/h 11 mph /  17.7 km/h 90 % 0 in /  0.0 mm
04:12 45.1 °F /  7.3 °C 42.4 °F /  5.8 °C 29.8 in /  1009.7 hPa SW 4 mph /  6.4 km/h 11 mph /  17.7 km/h 90 % 0 in /  0.0 mm
04:17 45.3 °F /  7.4 °C 42.6 °F /  5.9 °C 29.8 in /  1009.4 hPa WSW 8 mph /  12.9 km/h 10 mph /  16.1 km/h 90 % 0 in /  0.0 mm
04:22 45.3 °F /  7.4 °C 42.6 °F /  5.9 °C 29.8 in /  1009.4 hPa SW 4 mph /  6.4 km/h 11 mph /  17.7 km/h 90 % 0 in /  0.0 mm
04:27 45.3 °F /  7.4 °C 42.6 °F /  5.9 °C 29.8 in /  1009.7 hPa SW 8 mph /  12.9 km/h 12 mph /  19.3 km/h 90 % 0 in /  0.0 mm
04:32 45.5 °F /  7.5 °C 42.8 °F /  6.0 °C 29.8 in /  1009.4 hPa SW 5 mph /  8.0 km/h 12 mph /  19.3 km/h 90 % 0 in /  0.0 mm
04:37 45.7 °F /  7.6 °C 43 °F /  6.1 °C 29.8 in /  1009.4 hPa WSW 5 mph /  8.0 km/h 12 mph /  19.3 km/h 90 % 0 in /  0.0 mm
04:47 45.7 °F /  7.6 °C 43.2 °F /  6.2 °C 29.8 in /  1009.4 hPa West 6 mph /  9.7 km/h 11 mph /  17.7 km/h 91 % 0 in /  0.0 mm
04:52 45.7 °F /  7.6 °C 43.2 °F /  6.2 °C 29.8 in /  1009.4 hPa West 1 mph /  1.6 km/h 10 mph /  16.1 km/h 91 % 0 in /  0.0 mm
04:57 45.7 °F /  7.6 °C 43.2 °F /  6.2 °C 29.8 in /  1009.4 hPa West 5 mph /  8.0 km/h 10 mph /  16.1 km/h 91 % 0 in /  0.0 mm
05:02 45.7 °F /  7.6 °C 43.2 °F /  6.2 °C 29.8 in /  1009.4 hPa West 8 mph /  12.9 km/h 10 mph /  16.1 km/h 91 % 0 in /  0.0 mm
05:12 45.7 °F /  7.6 °C 43 °F /  6.1 °C 29.8 in /  1009.4 hPa WSW 10 mph /  16.1 km/h 10 mph /  16.1 km/h 90 % 0 in /  0.0 mm
05:17 45.7 °F /  7.6 °C 43 °F /  6.1 °C 29.8 in /  1009.4 hPa West 6 mph /  9.7 km/h 13 mph /  20.9 km/h 90 % 0 in /  0.0 mm
05:22 45.7 °F /  7.6 °C 43 °F /  6.1 °C 29.8 in /  1009.4 hPa WSW 6 mph /  9.7 km/h 13 mph /  20.9 km/h 90 % 0 in /  0.0 mm
05:32 45.7 °F /  7.6 °C 43 °F /  6.1 °C 29.8 in /  1009.4 hPa WSW 6 mph /  9.7 km/h 10 mph /  16.1 km/h 90 % 0 in /  0.0 mm
05:42 45.7 °F /  7.6 °C 43 °F /  6.1 °C 29.8 in /  1009.4 hPa West 5 mph /  8.0 km/h 10 mph /  16.1 km/h 90 % 0 in /  0.0 mm
05:47 45.9 °F /  7.7 °C 42.4 °F /  5.8 °C 29.8 in /  1009.0 hPa West 9 mph /  14.5 km/h 15 mph /  24.1 km/h 88 % 0 in /  0.0 mm
05:52 45.9 °F /  7.7 °C 41.9 °F /  5.5 °C 29.8 in /  1009.0 hPa West 5 mph /  8.0 km/h 15 mph /  24.1 km/h 86 % 0 in /  0.0 mm
05:57 46 °F /  7.8 °C 40.5 °F /  4.7 °C 29.8 in /  1009.0 hPa West 8 mph /  12.9 km/h 15 mph /  24.1 km/h 81 % 0 in /  0.0 mm
06:02 46 °F /  7.8 °C 40.5 °F /  4.7 °C 29.8 in /  1008.7 hPa West 10 mph /  16.1 km/h 19 mph /  30.6 km/h 81 % 0 in /  0.0 mm
06:12 45.9 °F /  7.7 °C 40.6 °F /  4.8 °C 29.8 in /  1008.4 hPa WSW 3 mph /  4.8 km/h 14 mph /  22.5 km/h 82 % 0 in /  0.0 mm
06:17 45.7 °F /  7.6 °C 40.8 °F /  4.9 °C 29.8 in /  1008.4 hPa WSW 1 mph /  1.6 km/h 14 mph /  22.5 km/h 83 % 0 in /  0.0 mm
06:22 45.7 °F /  7.6 °C 40.8 °F /  4.9 °C 29.8 in /  1008.4 hPa SW 7 mph /  11.3 km/h 14 mph /  22.5 km/h 83 % 0 in /  0.0 mm
06:27 45.3 °F /  7.4 °C 40.8 °F /  4.9 °C 29.8 in /  1008.4 hPa WSW 9 mph /  14.5 km/h 13 mph /  20.9 km/h 84 % 0 in /  0.0 mm
06:32 45 °F /  7.2 °C 41 °F /  5.0 °C 29.8 in /  1008.4 hPa West 5 mph /  8.0 km/h 13 mph /  20.9 km/h 86 % 0.01 in /  0.3 mm
06:37 44.8 °F /  7.1 °C 41.2 °F /  5.1 °C 29.8 in /  1008.4 hPa WSW 5 mph /  8.0 km/h 13 mph /  20.9 km/h 87 % 0.02 in /  0.5 mm
06:42 44.4 °F /  6.9 °C 41.2 °F /  5.1 °C 29.8 in /  1008.4 hPa West 5 mph /  8.0 km/h 11 mph /  17.7 km/h 88 % 0.02 in /  0.5 mm
06:47 44.2 °F /  6.8 °C 41 °F /  5.0 °C 29.8 in /  1008.4 hPa West 5 mph /  8.0 km/h 7 mph /  11.3 km/h 88 % 0.02 in /  0.5 mm
06:57 44.1 °F /  6.7 °C 41 °F /  5.0 °C 29.8 in /  1008.0 hPa West 3 mph /  4.8 km/h 10 mph /  16.1 km/h 89 % 0.03 in /  0.8 mm
07:02 43.9 °F /  6.6 °C 40.8 °F /  4.9 °C 29.8 in /  1008.0 hPa WSW 6 mph /  9.7 km/h 10 mph /  16.1 km/h 89 % 0.03 in /  0.8 mm
07:12 43.5 °F /  6.4 °C 40.3 °F /  4.6 °C 29.8 in /  1008.0 hPa West 5 mph /  8.0 km/h 7 mph /  11.3 km/h 88 % 0.04 in /  1.0 mm
07:17 43.3 °F /  6.3 °C 40.3 °F /  4.6 °C 29.8 in /  1008.0 hPa West 2 mph /  3.2 km/h 8 mph /  12.9 km/h 89 % 0.05 in /  1.3 mm
07:22 43.2 °F /  6.2 °C 40.1 °F /  4.5 °C 29.8 in /  1007.7 hPa Calm   8 mph /  12.9 km/h 89 % 0.05 in /  1.3 mm
07:27 43.2 °F /  6.2 °C 40.1 °F /  4.5 °C 29.7 in /  1007.0 hPa Calm   8 mph /  12.9 km/h 89 % 0.04 in /  1.0 mm
07:32 43 °F /  6.1 °C 39.9 °F /  4.4 °C 29.7 in /  1007.3 hPa SW 4 mph /  6.4 km/h 5 mph /  8.0 km/h 89 % 0.03 in /  0.8 mm
07:37 42.8 °F /  6.0 °C 40.1 °F /  4.5 °C 29.7 in /  1007.3 hPa SW 2 mph /  3.2 km/h 4 mph /  6.4 km/h 90 % 0.03 in /  0.8 mm
07:42 42.8 °F /  6.0 °C 40.1 °F /  4.5 °C 29.7 in /  1007.3 hPa SW 1 mph /  1.6 km/h 4 mph /  6.4 km/h 90 % 0.03 in /  0.8 mm
07:47 42.6 °F /  5.9 °C 39.9 °F /  4.4 °C 29.7 in /  1007.0 hPa Calm   4 mph /  6.4 km/h 90 % 0.02 in /  0.5 mm
07:52 42.6 °F /  5.9 °C 40.1 °F /  4.5 °C 29.7 in /  1006.7 hPa Calm   4 mph /  6.4 km/h 91 % 0.03 in /  0.8 mm
07:57 42.4 °F /  5.8 °C 39.9 °F /  4.4 °C 29.7 in /  1006.7 hPa Calm   2 mph /  3.2 km/h 91 % 0.03 in /  0.8 mm
08:02 42.3 °F /  5.7 °C 40.1 °F /  4.5 °C 29.7 in /  1006.7 hPa Calm   2 mph /  3.2 km/h 92 % 0.04 in /  1.0 mm
08:07 42.3 °F /  5.7 °C 40.1 °F /  4.5 °C 29.7 in /  1006.7 hPa Calm   2 mph /  3.2 km/h 92 % 0.03 in /  0.8 mm
08:12 42.3 °F /  5.7 °C 40.1 °F /  4.5 °C 29.7 in /  1006.7 hPa Calm   2 mph /  3.2 km/h 92 % 0.03 in /  0.8 mm
08:17 42.3 °F /  5.7 °C 40.5 °F /  4.7 °C 29.7 in /  1006.7 hPa Calm   2 mph /  3.2 km/h 93 % 0.03 in /  0.8 mm
08:22 42.3 °F /  5.7 °C 40.5 °F /  4.7 °C 29.7 in /  1006.3 hPa Calm     93 % 0.03 in /  0.8 mm
08:27 42.3 °F /  5.7 °C 40.5 °F /  4.7 °C 29.7 in /  1006.3 hPa Calm   1 mph /  1.6 km/h 93 % 0.03 in /  0.8 mm
08:32 42.3 °F /  5.7 °C 40.6 °F /  4.8 °C 29.7 in /  1006.0 hPa ESE 1 mph /  1.6 km/h 2 mph /  3.2 km/h 94 % 0.03 in /  0.8 mm
08:37 42.3 °F /  5.7 °C 40.6 °F /  4.8 °C 29.7 in /  1006.0 hPa East 1 mph /  1.6 km/h 2 mph /  3.2 km/h 94 % 0.02 in /  0.5 mm
08:42 42.3 °F /  5.7 °C 40.6 °F /  4.8 °C 29.7 in /  1006.3 hPa Calm   2 mph /  3.2 km/h 94 % 0.03 in /  0.8 mm
08:47 42.3 °F /  5.7 °C 40.6 °F /  4.8 °C 29.7 in /  1006.0 hPa SE 1 mph /  1.6 km/h 2 mph /  3.2 km/h 94 % 0.02 in /  0.5 mm
08:52 42.3 °F /  5.7 °C 41 °F /  5.0 °C 29.7 in /  1005.6 hPa SE 1 mph /  1.6 km/h 2 mph /  3.2 km/h 95 % 0.03 in /  0.8 mm
08:57 42.3 °F /  5.7 °C 41 °F /  5.0 °C 29.7 in /  1005.6 hPa ESE 1 mph /  1.6 km/h 3 mph /  4.8 km/h 95 % 0.06 in /  1.5 mm
09:02 42.3 °F /  5.7 °C 41 °F /  5.0 °C 29.7 in /  1005.6 hPa SSE 3 mph /  4.8 km/h 4 mph /  6.4 km/h 95 % 0.07 in /  1.8 mm
09:12 42.3 °F /  5.7 °C 41 °F /  5.0 °C 29.7 in /  1005.6 hPa South 3 mph /  4.8 km/h 5 mph /  8.0 km/h 95 % 0.07 in /  1.8 mm
09:17 42.3 °F /  5.7 °C 41 °F /  5.0 °C 29.7 in /  1005.3 hPa SSE 6 mph /  9.7 km/h 6 mph /  9.7 km/h 95 % 0.08 in /  2.0 mm
09:22 42.3 °F /  5.7 °C 41 °F /  5.0 °C 29.7 in /  1005.0 hPa SE 1 mph /  1.6 km/h 7 mph /  11.3 km/h 95 % 0.08 in /  2.0 mm
09:32 42.6 °F /  5.9 °C 41.5 °F /  5.3 °C 29.7 in /  1004.3 hPa ESE 7 mph /  11.3 km/h 10 mph /  16.1 km/h 96 % 0.1 in /  2.5 mm
09:37 42.8 °F /  6.0 °C 41.7 °F /  5.4 °C 29.7 in /  1004.3 hPa SSE 5 mph /  8.0 km/h 11 mph /  17.7 km/h 96 % 0.1 in /  2.5 mm
09:42 43.2 °F /  6.2 °C 42.1 °F /  5.6 °C 29.6 in /  1003.9 hPa SSE 6 mph /  9.7 km/h 11 mph /  17.7 km/h 96 % 0.1 in /  2.5 mm
09:47 43.3 °F /  6.3 °C 42.3 °F /  5.7 °C 29.6 in /  1003.6 hPa South 4 mph /  6.4 km/h 11 mph /  17.7 km/h 96 % 0.1 in /  2.5 mm
09:52 43.3 °F /  6.3 °C 42.3 °F /  5.7 °C 29.6 in /  1003.3 hPa SE 5 mph /  8.0 km/h 10 mph /  16.1 km/h 96 % 0.09 in /  2.3 mm
10:02 43.5 °F /  6.4 °C 42.4 °F /  5.8 °C 29.6 in /  1002.6 hPa ESE 10 mph /  16.1 km/h 11 mph /  17.7 km/h 96 % 0.06 in /  1.5 mm
10:07 43.5 °F /  6.4 °C 42.4 °F /  5.8 °C 29.6 in /  1002.3 hPa SE 9 mph /  14.5 km/h 12 mph /  19.3 km/h 96 % 0.06 in /  1.5 mm
10:12 43.7 °F /  6.5 °C 42.6 °F /  5.9 °C 29.6 in /  1002.3 hPa SSE 14 mph /  22.5 km/h 14 mph /  22.5 km/h 96 % 0.06 in /  1.5 mm
10:17 43.7 °F /  6.5 °C 42.6 °F /  5.9 °C 29.6 in /  1001.9 hPa SE 3 mph /  4.8 km/h 14 mph /  22.5 km/h 96 % 0.05 in /  1.3 mm
10:22 43.7 °F /  6.5 °C 42.4 °F /  5.8 °C 29.6 in /  1001.6 hPa SSE 7 mph /  11.3 km/h 17 mph /  27.4 km/h 95 % 0.05 in /  1.3 mm
10:27 43.5 °F /  6.4 °C 42.4 °F /  5.8 °C 29.6 in /  1001.2 hPa SSE 11 mph /  17.7 km/h 17 mph /  27.4 km/h 96 % 0.04 in /  1.0 mm
10:32 43.3 °F /  6.3 °C 42.1 °F /  5.6 °C 29.6 in /  1000.9 hPa SSE 5 mph /  8.0 km/h 17 mph /  27.4 km/h 95 % 0.04 in /  1.0 mm
10:37 43.3 °F /  6.3 °C 42.1 °F /  5.6 °C 29.6 in /  1000.6 hPa SE 5 mph /  8.0 km/h 15 mph /  24.1 km/h 95 % 0.04 in /  1.0 mm
10:42 43.3 °F /  6.3 °C 42.1 °F /  5.6 °C 29.5 in /  999.9 hPa ESE 7 mph /  11.3 km/h 15 mph /  24.1 km/h 95 % 0.04 in /  1.0 mm
10:47 43.3 °F /  6.3 °C 42.3 °F /  5.7 °C 29.5 in /  998.9 hPa SSE 6 mph /  9.7 km/h 19 mph /  30.6 km/h 96 % 0.05 in /  1.3 mm
10:52 43.3 °F /  6.3 °C 42.3 °F /  5.7 °C 29.5 in /  998.5 hPa SSE 7 mph /  11.3 km/h 19 mph /  30.6 km/h 96 % 0.05 in /  1.3 mm
10:57 43.5 °F /  6.4 °C 42.4 °F /  5.8 °C 29.5 in /  998.5 hPa South 8 mph /  12.9 km/h 19 mph /  30.6 km/h 96 % 0.05 in /  1.3 mm
11:02 43.7 °F /  6.5 °C 42.6 °F /  5.9 °C 29.5 in /  999.2 hPa SSW 11 mph /  17.7 km/h 19 mph /  30.6 km/h 96 % 0.04 in /  1.0 mm
11:07 43.9 °F /  6.6 °C 42.8 °F /  6.0 °C 29.5 in /  999.2 hPa SE 6 mph /  9.7 km/h 20 mph /  32.2 km/h 96 % 0.04 in /  1.0 mm
11:12 44.2 °F /  6.8 °C 43.5 °F /  6.4 °C 29.5 in /  998.9 hPa South 13 mph /  20.9 km/h 20 mph /  32.2 km/h 97 % 0.05 in /  1.3 mm
11:17 45.3 °F /  7.4 °C 44.6 °F /  7.0 °C 29.5 in /  998.9 hPa SSW 16 mph /  25.7 km/h 20 mph /  32.2 km/h 97 % 0.04 in /  1.0 mm
11:22 46.6 °F /  8.1 °C 45.1 °F /  7.3 °C 29.5 in /  998.5 hPa South 17 mph /  27.4 km/h 20 mph /  32.2 km/h 95 % 0.04 in /  1.0 mm
11:27 46.9 °F /  8.3 °C 45 °F /  7.2 °C 29.5 in /  997.9 hPa SSW 10 mph /  16.1 km/h 24 mph /  38.6 km/h 93 % 0.03 in /  0.8 mm
11:32 47.1 °F /  8.4 °C 45.1 °F /  7.3 °C 29.5 in /  997.9 hPa SSW 12 mph /  19.3 km/h 24 mph /  38.6 km/h 93 % 0.03 in /  0.8 mm
11:37 47.5 °F /  8.6 °C 45.5 °F /  7.5 °C 29.5 in /  997.9 hPa SW 9 mph /  14.5 km/h 23 mph /  37.0 km/h 93 % 0.03 in /  0.8 mm
11:42 47.8 °F /  8.8 °C 45.9 °F /  7.7 °C 29.5 in /  998.2 hPa SW 18 mph /  29.0 km/h 24 mph /  38.6 km/h 93 % 0.02 in /  0.5 mm
11:52 48.6 °F /  9.2 °C 43.7 °F /  6.5 °C 29.5 in /  997.9 hPa West 18 mph /  29.0 km/h 29 mph /  46.7 km/h 83 % 0.02 in /  0.5 mm
11:57 48.9 °F /  9.4 °C 42.1 °F /  5.6 °C 29.5 in /  997.9 hPa WSW 22 mph /  35.4 km/h 36 mph /  57.9 km/h 77 % 0.02 in /  0.5 mm
12:02 48.9 °F /  9.4 °C 42.1 °F /  5.6 °C 29.5 in /  997.9 hPa West 17 mph /  27.4 km/h 36 mph /  57.9 km/h 77 % 0.02 in /  0.5 mm
12:07 48.4 °F /  9.1 °C 42.8 °F /  6.0 °C 29.5 in /  998.2 hPa West 15 mph /  24.1 km/h 36 mph /  57.9 km/h 81 % 0.02 in /  0.5 mm
12:12 47.8 °F /  8.8 °C 42.3 °F /  5.7 °C 29.5 in /  997.9 hPa SSW 11 mph /  17.7 km/h 35 mph /  56.3 km/h 81 % 0.02 in /  0.5 mm
12:17 47.5 °F /  8.6 °C 42.3 °F /  5.7 °C 29.5 in /  997.9 hPa West 23 mph /  37.0 km/h 32 mph /  51.5 km/h 82 % 0.03 in /  0.8 mm
12:22 47.1 °F /  8.4 °C 42.6 °F /  5.9 °C 29.5 in /  998.2 hPa West 20 mph /  32.2 km/h 34 mph /  54.7 km/h 84 % 0.03 in /  0.8 mm
12:32 46.2 °F /  7.9 °C 42.6 °F /  5.9 °C 29.5 in /  998.2 hPa West 15 mph /  24.1 km/h 34 mph /  54.7 km/h 87 % 0.06 in /  1.5 mm
12:37 45.9 °F /  7.7 °C 42.4 °F /  5.8 °C 29.5 in /  997.9 hPa West 14 mph /  22.5 km/h 38 mph /  61.1 km/h 88 % 0.07 in /  1.8 mm
12:42 45.5 °F /  7.5 °C 42.4 °F /  5.8 °C 29.5 in /  997.9 hPa West 13 mph /  20.9 km/h 38 mph /  61.1 km/h 89 % 0.08 in /  2.0 mm
12:47 45.3 °F /  7.4 °C 42.6 °F /  5.9 °C 29.5 in /  997.9 hPa West 13 mph /  20.9 km/h 38 mph /  61.1 km/h 90 % 0.08 in /  2.0 mm
12:52 45.3 °F /  7.4 °C 42.6 °F /  5.9 °C 29.5 in /  997.9 hPa NNW 11 mph /  17.7 km/h 37 mph /  59.5 km/h 90 % 0.09 in /  2.3 mm
12:57 45.3 °F /  7.4 °C 42.6 °F /  5.9 °C 29.5 in /  997.9 hPa SW 11 mph /  17.7 km/h 26 mph /  41.8 km/h 90 % 0.09 in /  2.3 mm
13:02 45.7 °F /  7.6 °C 43 °F /  6.1 °C 29.5 in /  997.9 hPa WSW 16 mph /  25.7 km/h 25 mph /  40.2 km/h 90 % 0.1 in /  2.5 mm
13:07 45.9 °F /  7.7 °C 42.8 °F /  6.0 °C 29.5 in /  997.9 hPa WNW 11 mph /  17.7 km/h 30 mph /  48.3 km/h 89 % 0.11 in /  2.8 mm
13:12 45.9 °F /  7.7 °C 42.8 °F /  6.0 °C 29.5 in /  997.9 hPa West 14 mph /  22.5 km/h 30 mph /  48.3 km/h 89 % 0.11 in /  2.8 mm
13:17 46.2 °F /  7.9 °C 42.8 °F /  6.0 °C 29.5 in /  997.9 hPa WNW 28 mph /  45.1 km/h 30 mph /  48.3 km/h 88 % 0.1 in /  2.5 mm
13:22 46.2 °F /  7.9 °C 42.8 °F /  6.0 °C 29.5 in /  998.2 hPa WSW 28 mph /  45.1 km/h 36 mph /  57.9 km/h 88 % 0.1 in /  2.5 mm
13:27 46.6 °F /  8.1 °C 43.2 °F /  6.2 °C 29.5 in /  998.2 hPa WNW 19 mph /  30.6 km/h 36 mph /  57.9 km/h 88 % 0.1 in /  2.5 mm
13:32 46.8 °F /  8.2 °C 43.3 °F /  6.3 °C 29.5 in /  998.5 hPa WNW 16 mph /  25.7 km/h 36 mph /  57.9 km/h 88 % 0.09 in /  2.3 mm
13:37 46.9 °F /  8.3 °C 43.3 °F /  6.3 °C 29.5 in /  998.9 hPa West 8 mph /  12.9 km/h 35 mph /  56.3 km/h 87 % 0.08 in /  2.0 mm
13:42 46.9 °F /  8.3 °C 43.3 °F /  6.3 °C 29.5 in /  998.9 hPa West 19 mph /  30.6 km/h 31 mph /  49.9 km/h 87 % 0.07 in /  1.8 mm
13:47 47.1 °F /  8.4 °C 43.5 °F /  6.4 °C 29.5 in /  998.9 hPa WNW 25 mph /  40.2 km/h 31 mph /  49.9 km/h 87 % 0.06 in /  1.5 mm
13:52 47.5 °F /  8.6 °C 43.5 °F /  6.4 °C 29.5 in /  998.9 hPa WNW 18 mph /  29.0 km/h 31 mph /  49.9 km/h 86 % 0.05 in /  1.3 mm
13:57 47.7 °F /  8.7 °C 43.7 °F /  6.5 °C 29.5 in /  999.2 hPa West 16 mph /  25.7 km/h 33 mph /  53.1 km/h 86 % 0.04 in /  1.0 mm
14:02 47.8 °F /  8.8 °C 43.9 °F /  6.6 °C 29.5 in /  999.2 hPa WNW 10 mph /  16.1 km/h 33 mph /  53.1 km/h 86 % 0.03 in /  0.8 mm
14:07 47.8 °F /  8.8 °C 43.9 °F /  6.6 °C 29.5 in /  999.5 hPa WNW 16 mph /  25.7 km/h 31 mph /  49.9 km/h 86 % 0.02 in /  0.5 mm
14:12 47.8 °F /  8.8 °C 43.5 °F /  6.4 °C 29.5 in /  999.5 hPa West 25 mph /  40.2 km/h 27 mph /  43.4 km/h 85 % 0.02 in /  0.5 mm
14:22 48.4 °F /  9.1 °C 44.1 °F /  6.7 °C 29.5 in /  999.9 hPa West 19 mph /  30.6 km/h 33 mph /  53.1 km/h 85 % 0.01 in /  0.3 mm
14:27 48.6 °F /  9.2 °C 44.6 °F /  7.0 °C 29.5 in /  1000.2 hPa NW 12 mph /  19.3 km/h 33 mph /  53.1 km/h 86 % 0 in /  0.0 mm
14:32 48.4 °F /  9.1 °C 44.1 °F /  6.7 °C 29.5 in /  1000.2 hPa West 20 mph /  32.2 km/h 32 mph /  51.5 km/h 85 % 0 in /  0.0 mm
14:37 47.8 °F /  8.8 °C 43 °F /  6.1 °C 29.5 in /  1000.2 hPa West 32 mph /  51.5 km/h 33 mph /  53.1 km/h 83 % 0 in /  0.0 mm
14:42 47.8 °F /  8.8 °C 43.2 °F /  6.2 °C 29.6 in /  1000.6 hPa WNW 13 mph /  20.9 km/h 34 mph /  54.7 km/h 84 % 0 in /  0.0 mm
14:47 48 °F /  8.9 °C 42.8 °F /  6.0 °C 29.6 in /  1000.6 hPa West 16 mph /  25.7 km/h 34 mph /  54.7 km/h 82 % 0 in /  0.0 mm
14:52 48.2 °F /  9.0 °C 43.3 °F /  6.3 °C 29.6 in /  1000.9 hPa WNW 15 mph /  24.1 km/h 34 mph /  54.7 km/h 83 % 0.01 in /  0.3 mm
14:57 48 °F /  8.9 °C 43.3 °F /  6.3 °C 29.6 in /  1000.9 hPa WNW 24 mph /  38.6 km/h 31 mph /  49.9 km/h 84 % 0.01 in /  0.3 mm
15:02 47.7 °F /  8.7 °C 43.7 °F /  6.5 °C 29.6 in /  1001.2 hPa WNW 22 mph /  35.4 km/h 31 mph /  49.9 km/h 86 % 0.01 in /  0.3 mm
15:07 47.5 °F /  8.6 °C 43.5 °F /  6.4 °C 29.6 in /  1001.2 hPa WNW 14 mph /  22.5 km/h 30 mph /  48.3 km/h 86 % 0.01 in /  0.3 mm
15:12 47.5 °F /  8.6 °C 43.5 °F /  6.4 °C 29.6 in /  1001.6 hPa WNW 7 mph /  11.3 km/h 30 mph /  48.3 km/h 86 % 0.01 in /  0.3 mm
15:17 46.9 °F /  8.3 °C 43.3 °F /  6.3 °C 29.6 in /  1001.9 hPa West 16 mph /  25.7 km/h 29 mph /  46.7 km/h 87 % 0.01 in /  0.3 mm
15:22 46.8 °F /  8.2 °C 43.3 °F /  6.3 °C 29.6 in /  1002.3 hPa WNW 12 mph /  19.3 km/h 29 mph /  46.7 km/h 88 % 0.02 in /  0.5 mm
15:27 46.4 °F /  8.0 °C 43 °F /  6.1 °C 29.6 in /  1002.9 hPa NW 10 mph /  16.1 km/h 29 mph /  46.7 km/h 88 % 0.02 in /  0.5 mm
15:37 44.4 °F /  6.9 °C 40.8 °F /  4.9 °C 29.6 in /  1003.9 hPa NNW 15 mph /  24.1 km/h 28 mph /  45.1 km/h 87 % 0.02 in /  0.5 mm
15:42 43.9 °F /  6.6 °C 40.8 °F /  4.9 °C 29.7 in /  1004.6 hPa NNW 12 mph /  19.3 km/h 31 mph /  49.9 km/h 89 % 0.02 in /  0.5 mm
15:47 43.2 °F /  6.2 °C 40.1 °F /  4.5 °C 29.7 in /  1005.0 hPa NNW 6 mph /  9.7 km/h 31 mph /  49.9 km/h 89 % 0.02 in /  0.5 mm
15:52 42.6 °F /  5.9 °C 39.6 °F /  4.2 °C 29.7 in /  1005.3 hPa NW 7 mph /  11.3 km/h 31 mph /  49.9 km/h 89 % 0.02 in /  0.5 mm
16:02 41.7 °F /  5.4 °C 38.7 °F /  3.7 °C 29.7 in /  1006.7 hPa NNW 12 mph /  19.3 km/h 27 mph /  43.4 km/h 89 % 0.02 in /  0.5 mm
16:07 41.4 °F /  5.2 °C 39 °F /  3.9 °C 29.7 in /  1007.0 hPa NW 11 mph /  17.7 km/h 27 mph /  43.4 km/h 91 % 0.02 in /  0.5 mm
16:12 41.4 °F /  5.2 °C 39.2 °F /  4.0 °C 29.8 in /  1007.7 hPa NNW 17 mph /  27.4 km/h 27 mph /  43.4 km/h 92 % 0.02 in /  0.5 mm
16:17 40.8 °F /  4.9 °C 38.5 °F /  3.6 °C 29.8 in /  1008.0 hPa WNW 13 mph /  20.9 km/h 29 mph /  46.7 km/h 91 % 0.01 in /  0.3 mm
16:22 40.8 °F /  4.9 °C 38.5 °F /  3.6 °C 29.8 in /  1008.4 hPa North 12 mph /  19.3 km/h 29 mph /  46.7 km/h 91 % 0.01 in /  0.3 mm
16:27 40.6 °F /  4.8 °C 38.3 °F /  3.5 °C 29.8 in /  1008.7 hPa WNW 21 mph /  33.8 km/h 29 mph /  46.7 km/h 91 % 0.02 in /  0.5 mm
16:32 40.6 °F /  4.8 °C 38.3 °F /  3.5 °C 29.8 in /  1009.0 hPa NW 8 mph /  12.9 km/h 31 mph /  49.9 km/h 91 % 0.02 in /  0.5 mm
16:37 40.5 °F /  4.7 °C 37.8 °F /  3.2 °C 29.8 in /  1009.4 hPa NW 14 mph /  22.5 km/h 31 mph /  49.9 km/h 90 % 0.02 in /  0.5 mm
16:42 40.5 °F /  4.7 °C 38.1 °F /  3.4 °C 29.8 in /  1009.7 hPa NW 8 mph /  12.9 km/h 31 mph /  49.9 km/h 91 % 0.02 in /  0.5 mm
16:47 40.3 °F /  4.6 °C 37.9 °F /  3.3 °C 29.8 in /  1010.0 hPa NW 21 mph /  33.8 km/h 26 mph /  41.8 km/h 91 % 0.02 in /  0.5 mm
16:52 39.9 °F /  4.4 °C 37.6 °F /  3.1 °C 29.8 in /  1010.0 hPa WNW 9 mph /  14.5 km/h 26 mph /  41.8 km/h 91 % 0.02 in /  0.5 mm
16:57 39.9 °F /  4.4 °C 37.6 °F /  3.1 °C 29.8 in /  1010.4 hPa West 13 mph /  20.9 km/h 23 mph /  37.0 km/h 91 % 0.03 in /  0.8 mm
17:02 39.9 °F /  4.4 °C 37.2 °F /  2.9 °C 29.9 in /  1011.1 hPa NW 13 mph /  20.9 km/h 23 mph /  37.0 km/h 90 % 0.03 in /  0.8 mm
17:07 40.1 °F /  4.5 °C 37.4 °F /  3.0 °C 29.9 in /  1011.1 hPa NW 13 mph /  20.9 km/h 26 mph /  41.8 km/h 90 % 0.03 in /  0.8 mm
17:17 40.1 °F /  4.5 °C 37.8 °F /  3.2 °C 29.9 in /  1011.7 hPa NW 12 mph /  19.3 km/h 29 mph /  46.7 km/h 91 % 0.04 in /  1.0 mm
17:22 40.1 °F /  4.5 °C 37.8 °F /  3.2 °C 29.9 in /  1011.7 hPa WNW 15 mph /  24.1 km/h 29 mph /  46.7 km/h 91 % 0.05 in /  1.3 mm
17:27 40.1 °F /  4.5 °C 37.8 °F /  3.2 °C 29.9 in /  1011.7 hPa NW 10 mph /  16.1 km/h 23 mph /  37.0 km/h 91 % 0.04 in /  1.0 mm
17:32 40.1 °F /  4.5 °C 37.8 °F /  3.2 °C 29.9 in /  1012.1 hPa ESE 7 mph /  11.3 km/h 23 mph /  37.0 km/h 91 % 0.05 in /  1.3 mm
17:37 40.1 °F /  4.5 °C 37.4 °F /  3.0 °C 29.9 in /  1012.4 hPa NNW 3 mph /  4.8 km/h 23 mph /  37.0 km/h 90 % 0.04 in /  1.0 mm
17:42 40.1 °F /  4.5 °C 37.4 °F /  3.0 °C 29.9 in /  1012.8 hPa NW 3 mph /  4.8 km/h 23 mph /  37.0 km/h 90 % 0.04 in /  1.0 mm
17:47 40.1 °F /  4.5 °C 37.4 °F /  3.0 °C 29.9 in /  1012.8 hPa NNW 9 mph /  14.5 km/h 21 mph /  33.8 km/h 90 % 0.03 in /  0.8 mm
17:52 40.1 °F /  4.5 °C 37.4 °F /  3.0 °C 29.9 in /  1012.8 hPa NNW 6 mph /  9.7 km/h 25 mph /  40.2 km/h 90 % 0.04 in /  1.0 mm
17:57 40.1 °F /  4.5 °C 37.4 °F /  3.0 °C 29.9 in /  1013.1 hPa NW 10 mph /  16.1 km/h 25 mph /  40.2 km/h 90 % 0.03 in /  0.8 mm
18:02 40.1 °F /  4.5 °C 37.4 °F /  3.0 °C 29.9 in /  1013.1 hPa WNW 12 mph /  19.3 km/h 22 mph /  35.4 km/h 90 % 0.03 in /  0.8 mm
18:07 40.1 °F /  4.5 °C 37.4 °F /  3.0 °C 29.9 in /  1013.4 hPa West 8 mph /  12.9 km/h 22 mph /  35.4 km/h 90 % 0.03 in /  0.8 mm
18:12 40.1 °F /  4.5 °C 37.8 °F /  3.2 °C 29.9 in /  1013.4 hPa WNW 10 mph /  16.1 km/h 22 mph /  35.4 km/h 91 % 0.04 in /  1.0 mm
18:17 40.3 °F /  4.6 °C 37.6 °F /  3.1 °C 29.9 in /  1013.8 hPa WNW 18 mph /  29.0 km/h 21 mph /  33.8 km/h 90 % 0.03 in /  0.8 mm
18:22 40.3 °F /  4.6 °C 37.6 °F /  3.1 °C 29.9 in /  1013.8 hPa NW 6 mph /  9.7 km/h 21 mph /  33.8 km/h 90 % 0.02 in /  0.5 mm
18:32 40.1 °F /  4.5 °C 37.4 °F /  3.0 °C 29.9 in /  1014.1 hPa WNW 6 mph /  9.7 km/h 23 mph /  37.0 km/h 90 % 0.02 in /  0.5 mm
18:37 39.9 °F /  4.4 °C 37.2 °F /  2.9 °C 29.9 in /  1014.1 hPa WNW 14 mph /  22.5 km/h 23 mph /  37.0 km/h 90 % 0.02 in /  0.5 mm
18:42 39.9 °F /  4.4 °C 37.2 °F /  2.9 °C 29.9 in /  1014.1 hPa WNW 11 mph /  17.7 km/h 23 mph /  37.0 km/h 90 % 0.02 in /  0.5 mm
18:47 39.9 °F /  4.4 °C 37.2 °F /  2.9 °C 30 in /  1014.4 hPa WNW 13 mph /  20.9 km/h 21 mph /  33.8 km/h 90 % 0.02 in /  0.5 mm
18:52 39.7 °F /  4.3 °C 37 °F /  2.8 °C 30 in /  1014.4 hPa WNW 4 mph /  6.4 km/h 21 mph /  33.8 km/h 90 % 0.02 in /  0.5 mm
18:57 39.9 °F /  4.4 °C 37.2 °F /  2.9 °C 30 in /  1014.4 hPa West 11 mph /  17.7 km/h 23 mph /  37.0 km/h 90 % 0.02 in /  0.5 mm
19:02 39.9 °F /  4.4 °C 36.9 °F /  2.7 °C 30 in /  1014.4 hPa SW 10 mph /  16.1 km/h 23 mph /  37.0 km/h 89 % 0.02 in /  0.5 mm
19:07 40.1 °F /  4.5 °C 37 °F /  2.8 °C 30 in /  1014.4 hPa West 11 mph /  17.7 km/h 23 mph /  37.0 km/h 89 % 0.01 in /  0.3 mm
19:12 40.1 °F /  4.5 °C 37 °F /  2.8 °C 30 in /  1014.4 hPa WSW 10 mph /  16.1 km/h 21 mph /  33.8 km/h 89 % 0.01 in /  0.3 mm
19:17 40.3 °F /  4.6 °C 37.2 °F /  2.9 °C 30 in /  1014.8 hPa West 13 mph /  20.9 km/h 21 mph /  33.8 km/h 89 % 0.01 in /  0.3 mm
19:22 40.3 °F /  4.6 °C 37.2 °F /  2.9 °C 30 in /  1014.8 hPa WNW 14 mph /  22.5 km/h 19 mph /  30.6 km/h 89 % 0.01 in /  0.3 mm
19:27 40.5 °F /  4.7 °C 37.4 °F /  3.0 °C 30 in /  1014.8 hPa West 5 mph /  8.0 km/h 21 mph /  33.8 km/h 89 % 0.01 in /  0.3 mm
19:32 40.6 °F /  4.8 °C 37.6 °F /  3.1 °C 30 in /  1015.1 hPa West 11 mph /  17.7 km/h 21 mph /  33.8 km/h 89 % 0.01 in /  0.3 mm
19:37 40.6 °F /  4.8 °C 37.9 °F /  3.3 °C 30 in /  1015.1 hPa WNW 11 mph /  17.7 km/h 18 mph /  29.0 km/h 90 % 0 in /  0.0 mm
19:42 40.6 °F /  4.8 °C 37.9 °F /  3.3 °C 30 in /  1015.1 hPa West 10 mph /  16.1 km/h 18 mph /  29.0 km/h 90 % 0 in /  0.0 mm
19:47 40.6 °F /  4.8 °C 38.3 °F /  3.5 °C 30 in /  1015.1 hPa WNW 9 mph /  14.5 km/h 18 mph /  29.0 km/h 91 % 0 in /  0.0 mm
19:52 40.6 °F /  4.8 °C 37.9 °F /  3.3 °C 30 in /  1015.1 hPa WNW 8 mph /  12.9 km/h 14 mph /  22.5 km/h 90 % 0.01 in /  0.3 mm
19:57 40.6 °F /  4.8 °C 37.9 °F /  3.3 °C 30 in /  1015.1 hPa WSW 5 mph /  8.0 km/h 16 mph /  25.7 km/h 90 % 0.01 in /  0.3 mm
20:02 40.6 °F /  4.8 °C 37.9 °F /  3.3 °C 30 in /  1015.5 hPa WNW 4 mph /  6.4 km/h 16 mph /  25.7 km/h 90 % 0.01 in /  0.3 mm
20:07 40.6 °F /  4.8 °C 38.3 °F /  3.5 °C 30 in /  1015.5 hPa WSW 5 mph /  8.0 km/h 16 mph /  25.7 km/h 91 % 0.01 in /  0.3 mm
20:12 40.6 °F /  4.8 °C 38.3 °F /  3.5 °C 30 in /  1015.5 hPa WSW 3 mph /  4.8 km/h 13 mph /  20.9 km/h 91 % 0.01 in /  0.3 mm
20:17 40.6 °F /  4.8 °C 38.3 °F /  3.5 °C 30 in /  1015.5 hPa WSW 5 mph /  8.0 km/h 12 mph /  19.3 km/h 91 % 0.01 in /  0.3 mm
20:22 40.8 °F /  4.9 °C 38.5 °F /  3.6 °C 30 in /  1015.5 hPa West 6 mph /  9.7 km/h 9 mph /  14.5 km/h 91 % 0.01 in /  0.3 mm
20:27 40.8 °F /  4.9 °C 38.7 °F /  3.7 °C 30 in /  1015.5 hPa West 7 mph /  11.3 km/h 12 mph /  19.3 km/h 92 % 0.01 in /  0.3 mm
20:32 40.8 °F /  4.9 °C 38.7 °F /  3.7 °C 30 in /  1015.5 hPa West 5 mph /  8.0 km/h 12 mph /  19.3 km/h 92 % 0.01 in /  0.3 mm
20:37 40.8 °F /  4.9 °C 38.7 °F /  3.7 °C 30 in /  1015.5 hPa SW 5 mph /  8.0 km/h 13 mph /  20.9 km/h 92 % 0.01 in /  0.3 mm
20:42 40.8 °F /  4.9 °C 38.7 °F /  3.7 °C 30 in /  1015.5 hPa West 2 mph /  3.2 km/h 13 mph /  20.9 km/h 92 % 0.01 in /  0.3 mm
20:52 40.6 °F /  4.8 °C 38.8 °F /  3.8 °C 30 in /  1015.5 hPa SW 2 mph /  3.2 km/h 7 mph /  11.3 km/h 93 % 0 in /  0.0 mm
20:57 40.6 °F /  4.8 °C 38.8 °F /  3.8 °C 30 in /  1015.5 hPa West 3 mph /  4.8 km/h 7 mph /  11.3 km/h 93 % 0 in /  0.0 mm
21:02 40.5 °F /  4.7 °C 38.7 °F /  3.7 °C 30 in /  1015.5 hPa WNW 5 mph /  8.0 km/h 7 mph /  11.3 km/h 93 % 0 in /  0.0 mm
21:07 40.5 °F /  4.7 °C 38.7 °F /  3.7 °C 30 in /  1015.8 hPa West 5 mph /  8.0 km/h 7 mph /  11.3 km/h 93 % 0 in /  0.0 mm
21:12 40.5 °F /  4.7 °C 38.7 °F /  3.7 °C 30 in /  1015.8 hPa West 5 mph /  8.0 km/h 9 mph /  14.5 km/h 93 % 0 in /  0.0 mm
21:17 40.5 °F /  4.7 °C 38.7 °F /  3.7 °C 30 in /  1015.8 hPa WSW 4 mph /  6.4 km/h 9 mph /  14.5 km/h 93 % 0 in /  0.0 mm
21:22 40.6 °F /  4.8 °C 38.8 °F /  3.8 °C 30 in /  1015.8 hPa West 2 mph /  3.2 km/h 8 mph /  12.9 km/h 93 % 0 in /  0.0 mm
21:27 40.6 °F /  4.8 °C 38.5 °F /  3.6 °C 30 in /  1015.8 hPa West 3 mph /  4.8 km/h 10 mph /  16.1 km/h 92 % 0 in /  0.0 mm
21:32 40.6 °F /  4.8 °C 38.5 °F /  3.6 °C 30 in /  1015.8 hPa West 4 mph /  6.4 km/h 10 mph /  16.1 km/h 92 % 0 in /  0.0 mm
21:37 40.8 °F /  4.9 °C 38.7 °F /  3.7 °C 30 in /  1015.8 hPa West 3 mph /  4.8 km/h 10 mph /  16.1 km/h 92 % 0 in /  0.0 mm
21:42 41 °F /  5.0 °C 38.7 °F /  3.7 °C 30 in /  1015.8 hPa West 3 mph /  4.8 km/h 10 mph /  16.1 km/h 91 % 0 in /  0.0 mm
21:47 41.5 °F /  5.3 °C 38.5 °F /  3.6 °C 30 in /  1016.1 hPa WNW 6 mph /  9.7 km/h 14 mph /  22.5 km/h 89 % 0 in /  0.0 mm
21:52 41.5 °F /  5.3 °C 38.3 °F /  3.5 °C 30 in /  1016.1 hPa West 7 mph /  11.3 km/h 14 mph /  22.5 km/h 88 % 0 in /  0.0 mm
21:57 41.5 °F /  5.3 °C 38.3 °F /  3.5 °C 30 in /  1016.1 hPa West 9 mph /  14.5 km/h 14 mph /  22.5 km/h 88 % 0 in /  0.0 mm
22:02 41.4 °F /  5.2 °C 38.1 °F /  3.4 °C 30 in /  1016.1 hPa West 5 mph /  8.0 km/h 13 mph /  20.9 km/h 88 % 0 in /  0.0 mm
22:07 41.2 °F /  5.1 °C 38.1 °F /  3.4 °C 30 in /  1016.1 hPa West 6 mph /  9.7 km/h 13 mph /  20.9 km/h 89 % 0 in /  0.0 mm
22:12 41 °F /  5.0 °C 38.3 °F /  3.5 °C 30 in /  1016.5 hPa WNW 6 mph /  9.7 km/h 12 mph /  19.3 km/h 90 % 0 in /  0.0 mm
22:17 40.8 °F /  4.9 °C 38.1 °F /  3.4 °C 30 in /  1016.5 hPa SW 5 mph /  8.0 km/h 11 mph /  17.7 km/h 90 % 0 in /  0.0 mm
22:22 40.8 °F /  4.9 °C 38.1 °F /  3.4 °C 30 in /  1016.5 hPa WNW 8 mph /  12.9 km/h 12 mph /  19.3 km/h 90 % 0 in /  0.0 mm
22:27 40.8 °F /  4.9 °C 37.8 °F /  3.2 °C 30 in /  1016.5 hPa West 8 mph /  12.9 km/h 15 mph /  24.1 km/h 89 % 0 in /  0.0 mm
22:32 41 °F /  5.0 °C 37.9 °F /  3.3 °C 30 in /  1016.5 hPa West 8 mph /  12.9 km/h 15 mph /  24.1 km/h 89 % 0 in /  0.0 mm
22:37 41.2 °F /  5.1 °C 38.1 °F /  3.4 °C 30 in /  1016.5 hPa West 7 mph /  11.3 km/h 15 mph /  24.1 km/h 89 % 0 in /  0.0 mm
22:42 41.4 °F /  5.2 °C 38.3 °F /  3.5 °C 30 in /  1016.5 hPa WNW 9 mph /  14.5 km/h 16 mph /  25.7 km/h 89 % 0 in /  0.0 mm
22:47 41.5 °F /  5.3 °C 38.3 °F /  3.5 °C 30 in /  1016.5 hPa West 10 mph /  16.1 km/h 17 mph /  27.4 km/h 88 % 0 in /  0.0 mm
22:52 41.5 °F /  5.3 °C 38.3 °F /  3.5 °C 30 in /  1016.5 hPa NW 17 mph /  27.4 km/h 19 mph /  30.6 km/h 88 % 0 in /  0.0 mm
22:57 41.9 °F /  5.5 °C 38.3 °F /  3.5 °C 30 in /  1016.5 hPa West 11 mph /  17.7 km/h 19 mph /  30.6 km/h 87 % 0 in /  0.0 mm
23:02 42.1 °F /  5.6 °C 38.5 °F /  3.6 °C 30 in /  1016.5 hPa WNW 19 mph /  30.6 km/h 19 mph /  30.6 km/h 87 % 0 in /  0.0 mm
23:07 42.1 °F /  5.6 °C 38.5 °F /  3.6 °C 30 in /  1016.8 hPa WNW 11 mph /  17.7 km/h 20 mph /  32.2 km/h 87 % 0 in /  0.0 mm
23:12 42.1 °F /  5.6 °C 38.5 °F /  3.6 °C 30 in /  1016.8 hPa WSW 14 mph /  22.5 km/h 20 mph /  32.2 km/h 87 % 0 in /  0.0 mm
23:17 42.1 °F /  5.6 °C 38.5 °F /  3.6 °C 30 in /  1016.8 hPa WNW 8 mph /  12.9 km/h 23 mph /  37.0 km/h 87 % 0 in /  0.0 mm
23:22 42.1 °F /  5.6 °C 38.5 °F /  3.6 °C 30 in /  1016.8 hPa WSW 8 mph /  12.9 km/h 23 mph /  37.0 km/h 87 % 0 in /  0.0 mm
23:27 41.7 °F /  5.4 °C 38.5 °F /  3.6 °C 30 in /  1016.8 hPa WNW 10 mph /  16.1 km/h 23 mph /  37.0 km/h 88 % 0 in /  0.0 mm
23:32 41.7 °F /  5.4 °C 38.5 °F /  3.6 °C 30 in /  1016.8 hPa WSW 7 mph /  11.3 km/h 21 mph /  33.8 km/h 88 % 0 in /  0.0 mm
23:37 41.7 °F /  5.4 °C 38.5 °F /  3.6 °C 30 in /  1016.8 hPa West 8 mph /  12.9 km/h 18 mph /  29.0 km/h 88 % 0 in /  0.0 mm
23:42 41.9 °F /  5.5 °C 38.7 °F /  3.7 °C 30 in /  1016.5 hPa WSW 7 mph /  11.3 km/h 19 mph /  30.6 km/h 88 % 0 in /  0.0 mm
23:47 41.9 °F /  5.5 °C 38.8 °F /  3.8 °C 30 in /  1016.8 hPa West 9 mph /  14.5 km/h 19 mph /  30.6 km/h 89 % 0 in /  0.0 mm
23:52 42.1 °F /  5.6 °C 39 °F /  3.9 °C 30 in /  1016.8 hPa WNW 7 mph /  11.3 km/h 19 mph /  30.6 km/h 89 % 0 in /  0.0 mm
Meteo18
Compliments of Weather Underground - 4 mb

Script developed by  Jim McMurry - jmcmurry@mwt.net Adapted for the template by  Wim van der Kuil - Leuven-Template.eu

You find our weather info also at:

European Weather Network

Weather Underground

Equipment we use:

Weather-station
Davis Vue

Weather-program
Meteohub

Weather-server
Raspberry PI 2 B+

Provider
1 and 1

Davis Vue

Meteohub

Raspberry PI 2 B+

1 and 1